Time;durP1;ratioP1;P1;durP2;ratioP2;P2;SDS_P1;SDS_P2;PMS_P1;PMS_P2;Temp;Humidity;BMP_temperature;BMP_pressure;BME280_temperature;BME280_humidity;BME280_pressure;Samples;Min_cycle;Max_cycle;Signal;HPM_P1;HPM_P2
2023/07/01 00:01:35;;;;;;;2.78;1.83;;;;;;;;;;5078759;28;20048;-51
2023/07/01 00:04:02;;;;;;;2.60;1.48;;;;;;;;;;5078472;28;20118;-51
2023/07/01 00:06:28;;;;;;;3.47;1.50;;;;;;;;;;5080060;28;20044;-51
2023/07/01 00:08:54;;;;;;;5.82;2.28;;;;;;;;;;5078464;28;20051;-51
2023/07/01 00:11:20;;;;;;;4.28;1.85;;;;;;;;;;5078214;28;20541;-51
2023/07/01 00:13:47;;;;;;;3.00;1.92;;;;;;;;;;5093170;27;20588;-51
2023/07/01 00:16:16;;;;;;;5.35;2.22;;;;;;;;;;5077956;28;20064;-52
2023/07/01 00:18:43;;;;;;;4.78;1.70;;;;;;;;;;5077468;28;20110;-53
2023/07/01 00:21:09;;;;;;;7.28;2.30;;;;;;;;;;5078269;28;20036;-51
2023/07/01 00:23:35;;;;;;;6.53;1.90;;;;;;;;;;5077360;28;20091;-51
2023/07/01 00:26:02;;;;;;;4.85;1.90;;;;;;;;;;5093593;27;20102;-51
2023/07/01 00:28:28;;;;;;;3.75;2.05;;;;;;;;;;5077814;28;20417;-51
2023/07/01 00:30:54;;;;;;;3.92;1.67;;;;;;;;;;5078204;28;20036;-51
2023/07/01 00:33:20;;;;;;;4.38;2.13;;;;;;;;;;5077624;28;20539;-50
2023/07/01 00:35:46;;;;;;;3.47;2.20;;;;;;;;;;5078590;28;20520;-51
2023/07/01 00:38:13;;;;;;;3.63;1.90;;;;;;;;;;5077242;28;20041;-51
2023/07/01 00:40:39;;;;;;;6.22;2.50;;;;;;;;;;5078222;28;20044;-51
2023/07/01 00:43:05;;;;;;;4.65;2.30;;;;;;;;;;5077601;28;20044;-50
2023/07/01 00:45:31;;;;;;;3.40;2.03;;;;;;;;;;5093877;27;20048;-50
2023/07/01 00:47:57;;;;;;;5.70;2.03;;;;;;;;;;5077874;28;20044;-51
2023/07/01 00:50:24;;;;;;;5.13;2.03;;;;;;;;;;5078208;28;20044;-51
2023/07/01 00:52:50;;;;;;;3.47;2.13;;;;;;;;;;5076747;28;20045;-51
2023/07/01 00:55:16;;;;;;;3.88;2.17;;;;;;;;;;5077926;28;20829;-51
2023/07/01 00:57:43;;;;;;;4.63;2.33;;;;;;;;;;5075723;28;20040;-51
2023/07/01 01:00:10;;;;;;;2.90;2.08;;;;;;;;;;5077855;27;20155;-51
2023/07/01 01:02:42;;;;;;;6.35;2.72;;;;;;;;;;5077212;28;20043;-50
2023/07/01 01:05:11;;;;;;;;;;;;;;;;;;5078092;28;20044;-51
2023/07/01 01:07:42;;;;;;;4.45;1.80;;;;;;;;;;5078186;28;20065;-51
2023/07/01 01:10:13;;;;;;;4.32;2.17;;;;;;;;;;5077156;28;20044;-51
2023/07/01 01:12:39;;;;;;;3.30;1.95;;;;;;;;;;5077322;28;20064;-51
2023/07/01 01:15:06;;;;;;;6.30;2.10;;;;;;;;;;5076552;28;20186;-51
2023/07/01 01:17:35;;;;;;;3.67;1.70;;;;;;;;;;5077839;28;20048;-51
2023/07/01 01:20:12;;;;;;;5.05;1.90;;;;;;;;;;5076520;28;20629;-51
2023/07/01 01:22:44;;;;;;;2.58;1.95;;;;;;;;;;5077687;28;20040;-50
2023/07/01 01:25:10;;;;;;;;;;;;;;;;;;5077247;27;20083;-51
2023/07/01 01:27:40;;;;;;;5.95;2.05;;;;;;;;;;5077917;28;20386;-51
2023/07/01 01:30:06;;;;;;;2.75;1.98;;;;;;;;;;5076591;28;20072;-51
2023/07/01 01:32:36;;;;;;;5.70;1.73;;;;;;;;;;5077853;28;20040;-51
2023/07/01 01:35:02;;;;;;;4.50;2.05;;;;;;;;;;5076837;28;20331;-50
2023/07/01 01:37:37;;;;;;;2.90;1.75;;;;;;;;;;5076786;28;20090;-51
2023/07/01 01:40:10;;;;;;;3.83;1.98;;;;;;;;;;5078047;28;20167;-51
2023/07/01 01:42:38;;;;;;;5.03;1.88;;;;;;;;;;5077122;28;20040;-50
2023/07/01 01:45:05;;;;;;;2.70;1.63;;;;;;;;;;5077037;28;20060;-51
2023/07/01 01:47:32;;;;;;;2.97;1.67;;;;;;;;;;5076865;28;20076;-51
2023/07/01 01:50:03;;;;;;;4.28;1.80;;;;;;;;;;5077847;28;20883;-51
2023/07/01 01:52:30;;;;;;;2.92;1.85;;;;;;;;;;5077491;28;20105;-51
2023/07/01 01:54:57;;;;;;;3.65;2.20;;;;;;;;;;5078494;28;20131;-50
2023/07/01 01:57:24;;;;;;;6.63;2.20;;;;;;;;;;5076878;28;20059;-50
2023/07/01 01:59:50;;;;;;;10.23;2.15;;;;;;;;;;5077328;28;20037;-51
2023/07/01 02:02:16;;;;;;;5.05;1.88;;;;;;;;;;5076154;28;20039;-51
2023/07/01 02:04:43;;;;;;;4.70;1.70;;;;;;;;;;5077834;28;20515;-51
2023/07/01 02:07:09;;;;;;;6.50;2.10;;;;;;;;;;5077161;28;20051;-51
2023/07/01 02:09:35;;;;;;;3.58;1.83;;;;;;;;;;5080791;28;20128;-51
2023/07/01 02:12:01;;;;;;;4.00;1.95;;;;;;;;;;5079448;28;20040;-51
2023/07/01 02:14:27;;;;;;;2.92;2.17;;;;;;;;;;5080654;28;20033;-51
2023/07/01 02:16:54;;;;;;;4.75;2.10;;;;;;;;;;5080020;28;20136;-51
2023/07/01 02:19:20;;;;;;;3.38;1.63;;;;;;;;;;5080628;28;20052;-51
2023/07/01 02:21:46;;;;;;;2.17;1.52;;;;;;;;;;5079200;28;20048;-51
2023/07/01 02:24:12;;;;;;;2.42;1.58;;;;;;;;;;5079470;28;20041;-50
2023/07/01 02:26:38;;;;;;;2.25;1.60;;;;;;;;;;5078630;28;20048;-51
2023/07/01 02:29:04;;;;;;;2.92;1.70;;;;;;;;;;5077074;28;20043;-51
2023/07/01 02:31:30;;;;;;;3.60;1.95;;;;;;;;;;5071609;28;20037;-51
2023/07/01 02:34:00;;;;;;;3.05;1.85;;;;;;;;;;5079861;28;20048;-50
2023/07/01 02:36:26;;;;;;;1.70;1.35;;;;;;;;;;5079829;28;20052;-51
2023/07/01 02:38:52;;;;;;;3.05;1.85;;;;;;;;;;5080609;28;20443;-52
2023/07/01 02:41:18;;;;;;;3.95;1.92;;;;;;;;;;5079548;28;20045;-51
2023/07/01 02:43:44;;;;;;;5.30;1.90;;;;;;;;;;5084531;27;20120;-51
2023/07/01 02:46:11;;;;;;;3.38;1.65;;;;;;;;;;5078828;28;20116;-51
2023/07/01 02:48:37;;;;;;;2.72;1.58;;;;;;;;;;5079149;28;20036;-51
2023/07/01 02:51:03;;;;;;;3.35;1.88;;;;;;;;;;5079621;28;20133;-51
2023/07/01 02:53:29;;;;;;;3.15;2.13;;;;;;;;;;5079542;28;20482;-51
2023/07/01 02:55:55;;;;;;;3.70;1.85;;;;;;;;;;5079808;28;20052;-51
2023/07/01 02:58:22;;;;;;;5.70;2.72;;;;;;;;;;5079088;28;20045;-51
2023/07/01 03:00:48;;;;;;;4.00;2.38;;;;;;;;;;5079982;28;20082;-51
2023/07/01 03:03:14;;;;;;;3.60;2.88;;;;;;;;;;5079472;28;21306;-51
2023/07/01 03:05:40;;;;;;;3.35;2.00;;;;;;;;;;5079756;28;20036;-51
2023/07/01 03:08:07;;;;;;;3.40;2.33;;;;;;;;;;5080250;28;20037;-51
2023/07/01 03:10:34;;;;;;;2.70;1.85;;;;;;;;;;5079604;27;20045;-50
2023/07/01 03:13:00;;;;;;;4.97;1.88;;;;;;;;;;5080547;28;20052;-51
2023/07/01 03:15:26;;;;;;;3.83;1.83;;;;;;;;;;5079254;28;20110;-51
2023/07/01 03:17:53;;;;;;;3.63;1.90;;;;;;;;;;5095189;27;20121;-51
2023/07/01 03:20:25;;;;;;;3.13;2.17;;;;;;;;;;5078485;28;20033;-51
2023/07/01 03:22:51;;;;;;;3.33;2.28;;;;;;;;;;5079990;28;20126;-51
2023/07/01 03:25:17;;;;;;;3.70;1.95;;;;;;;;;;5077031;28;20495;-50
2023/07/01 03:27:44;;;;;;;2.38;1.83;;;;;;;;;;5078754;28;20040;-51
2023/07/01 03:30:13;;;;;;;3.67;2.00;;;;;;;;;;5077752;28;20064;-50
2023/07/01 03:32:43;;;;;;;4.60;2.00;;;;;;;;;;5078912;28;20044;-50
2023/07/01 03:35:11;;;;;;;3.58;2.65;;;;;;;;;;5078275;28;20040;-51
2023/07/01 03:37:41;;;;;;;3.25;1.80;;;;;;;;;;5079304;28;20047;-50
2023/07/01 03:40:11;;;;;;;5.38;2.17;;;;;;;;;;5079316;28;20037;-51
2023/07/01 03:42:37;;;;;;;3.58;1.80;;;;;;;;;;5078672;28;20526;-51
2023/07/01 03:45:05;;;;;;;5.53;2.58;;;;;;;;;;5078704;28;20611;-51
2023/07/01 03:47:31;;;;;;;6.75;2.63;;;;;;;;;;5078375;28;20040;-51
2023/07/01 03:49:57;;;;;;;3.08;2.35;;;;;;;;;;5079583;28;20117;-51
2023/07/01 03:52:23;;;;;;;6.45;2.50;;;;;;;;;;5078589;28;20500;-51
2023/07/01 03:54:49;;;;;;;5.05;3.60;;;;;;;;;;5078185;28;20041;-51
2023/07/01 03:57:15;;;;;;;6.55;3.20;;;;;;;;;;5079225;28;20049;-51
2023/07/01 03:59:42;;;;;;;4.07;2.80;;;;;;;;;;5078740;28;20043;-51
2023/07/01 04:02:08;;;;;;;4.57;3.30;;;;;;;;;;5078422;28;20607;-51
2023/07/01 04:04:34;;;;;;;4.25;3.03;;;;;;;;;;5078110;28;20099;-51
2023/07/01 04:07:04;;;;;;;6.18;3.50;;;;;;;;;;5078152;28;20043;-51
2023/07/01 04:09:30;;;;;;;5.90;2.95;;;;;;;;;;5078428;28;20519;-51
2023/07/01 04:11:56;;;;;;;4.10;2.40;;;;;;;;;;5078334;27;20239;-51
2023/07/01 04:14:23;;;;;;;6.63;2.90;;;;;;;;;;5078294;28;20040;-51
2023/07/01 04:16:49;;;;;;;5.22;2.80;;;;;;;;;;5078235;28;20128;-51
2023/07/01 04:19:15;;;;;;;4.47;3.10;;;;;;;;;;5078829;28;20471;-50
2023/07/01 04:21:41;;;;;;;3.90;2.40;;;;;;;;;;5078455;28;20041;-51
2023/07/01 04:24:07;;;;;;;5.22;2.70;;;;;;;;;;5078130;28;20107;-51
2023/07/01 04:26:37;;;;;;;4.38;2.40;;;;;;;;;;5077616;28;20037;-51
2023/07/01 04:29:03;;;;;;;4.60;2.33;;;;;;;;;;5077761;28;20502;-51
2023/07/01 04:31:29;;;;;;;9.18;2.72;;;;;;;;;;5076572;28;20597;-51
2023/07/01 04:33:55;;;;;;;5.03;1.98;;;;;;;;;;5078563;28;20059;-51
2023/07/01 04:36:22;;;;;;;3.53;2.03;;;;;;;;;;5077090;28;20076;-51
2023/07/01 04:38:48;;;;;;;3.90;2.42;;;;;;;;;;5078674;28;20056;-51
2023/07/01 04:44:18;;;;;;;6.18;2.67;;;;;;;;;;5077152;28;20057;-51
